Brandon, Florida
Current Conditions -  °F | °C
As of 10:55 AM on Sunday 23 Nov 2014 (Local Time) from KVDF Reporting Station
Scattered Clouds Scattered Clouds  
Wind Chill: 82°   Ceiling: Unl
Heat Index: 86°   Visibility: 10mi
Dew Point: 70°   Wind: 17mph
Humidity: 66%   Direction: 180°S
Pressure: 30"   Gusts: 29mph
Location:  27.94°N, 82.32°W
Report Text: KVDF 231555Z AUTO 18015G25KT 10SM SCT023 28/21 A3000 RMK AO2
Loading
Personal Weather Stations






























Interactive Weather Map New forecast layout! Learn more

10-Day Weather Forecast

Advertisements
Track Severe Weather on mobile